Time;durP1;ratioP1;P1;durP2;ratioP2;P2;SDS_P1;SDS_P2;PMS_P1;PMS_P2;Temp;Humidity;BMP_temperature;BMP_pressure;BME280_temperature;BME280_humidity;BME280_pressure;Samples;Min_cycle;Max_cycle;Signal;HPM_P1;HPM_P2
2021/10/17 00:02:07;;;;;;;23.17;20.77;;;9.50;99.90;;;;;;5035441;28;20543;-55
2021/10/17 00:04:33;;;;;;;24.17;21.67;;;9.40;99.90;;;;;;5053710;28;20167;-57
2021/10/17 00:06:58;;;;;;;26.03;23.10;;;9.40;99.90;;;;;;5052767;28;20168;-57
2021/10/17 00:09:24;;;;;;;28.57;25.47;;;9.40;99.90;;;;;;5052902;28;20560;-53
2021/10/17 00:11:49;;;;;;;25.83;23.03;;;9.40;99.90;;;;;;5053756;28;20210;-57
2021/10/17 00:14:15;;;;;;;26.20;23.33;;;9.40;99.90;;;;;;5053676;28;20599;-53
2021/10/17 00:16:41;;;;;;;24.30;21.80;;;9.30;99.90;;;;;;5052776;28;20174;-56
2021/10/17 00:19:06;;;;;;;24.20;20.10;;;9.30;99.90;;;;;;5052996;28;20158;-56
2021/10/17 00:21:32;;;;;;;26.27;21.70;;;9.30;99.90;;;;;;5053634;28;20166;-55
2021/10/17 00:23:57;;;;;;;24.23;21.10;;;9.30;99.90;;;;;;5052859;28;20651;-56
2021/10/17 00:26:23;;;;;;;23.73;21.23;;;9.30;99.90;;;;;;5053219;28;20215;-57
2021/10/17 00:28:49;;;;;;;24.63;22.10;;;9.30;99.90;;;;;;5053075;28;20168;-55
2021/10/17 00:31:14;;;;;;;23.23;20.87;;;9.30;99.90;;;;;;5052580;28;20771;-57
2021/10/17 00:33:40;;;;;;;30.93;25.10;;;9.40;99.90;;;;;;5052953;28;20193;-54
2021/10/17 00:36:06;;;;;;;25.50;22.60;;;9.40;99.90;;;;;;5052749;28;20532;-52
2021/10/17 00:38:31;;;;;;;24.97;22.30;;;9.50;99.90;;;;;;5052607;28;20166;-56
2021/10/17 00:40:57;;;;;;;23.50;21.10;;;9.50;99.90;;;;;;5052902;28;20197;-56
2021/10/17 00:43:23;;;;;;;23.97;21.40;;;9.40;99.90;;;;;;5052846;28;20174;-55
2021/10/17 00:45:48;;;;;;;25.00;22.30;;;9.50;99.90;;;;;;5052565;28;20165;-57
2021/10/17 00:48:14;;;;;;;24.67;21.40;;;9.50;99.90;;;;;;5053189;28;20198;-56
2021/10/17 00:50:40;;;;;;;23.13;20.53;;;9.40;99.90;;;;;;5052830;28;20235;-52
2021/10/17 00:53:05;;;;;;;25.80;22.77;;;9.30;99.90;;;;;;5052977;28;20288;-57
2021/10/17 00:55:31;;;;;;;28.97;25.73;;;9.30;99.90;;;;;;5052780;28;20193;-56
2021/10/17 00:58:00;;;;;;;24.10;21.07;;;9.30;99.90;;;;;;5052818;28;20173;-56
2021/10/17 01:00:27;;;;;;;27.23;22.73;;;9.30;99.90;;;;;;5054775;28;20201;-56
2021/10/17 01:02:53;;;;;;;27.73;23.80;;;9.30;99.90;;;;;;5052766;28;20399;-53
2021/10/17 01:05:19;;;;;;;25.60;21.17;;;9.30;99.90;;;;;;5052614;28;20410;-53
2021/10/17 01:07:46;;;;;;;27.90;24.90;;;9.30;99.90;;;;;;5052523;28;20433;-56
2021/10/17 01:10:12;;;;;;;31.87;26.73;;;9.30;99.90;;;;;;5052749;28;20427;-56
2021/10/17 01:12:37;;;;;;;26.20;21.60;;;9.40;99.90;;;;;;5052249;28;20413;-56
2021/10/17 01:15:04;;;;;;;27.27;24.30;;;9.40;99.90;;;;;;5051345;28;20441;-53
2021/10/17 01:17:30;;;;;;;22.73;20.43;;;9.40;99.90;;;;;;5052884;28;20673;-55
2021/10/17 01:19:56;;;;;;;24.50;21.90;;;9.40;99.90;;;;;;5055840;28;20492;-56
2021/10/17 01:22:24;;;;;;;39.00;33.63;;;9.40;99.90;;;;;;5056388;28;20187;-55
2021/10/17 01:24:51;;;;;;;39.23;31.63;;;9.40;99.90;;;;;;5055944;28;20200;-56
2021/10/17 01:27:17;;;;;;;32.90;28.73;;;9.30;99.90;;;;;;5056340;28;20419;-53
2021/10/17 01:29:42;;;;;;;29.80;26.07;;;9.30;99.90;;;;;;5055982;28;20928;-54
2021/10/17 01:32:08;;;;;;;29.53;24.53;;;9.30;99.90;;;;;;5055713;28;20418;-56
2021/10/17 01:34:34;;;;;;;34.50;29.77;;;9.30;99.90;;;;;;5056212;28;20240;-55
2021/10/17 01:37:00;;;;;;;33.23;28.00;;;9.20;99.90;;;;;;5056215;28;20500;-52
2021/10/17 01:39:25;;;;;;;28.83;25.63;;;9.20;99.90;;;;;;5059107;28;20190;-50
2021/10/17 01:41:51;;;;;;;30.23;26.80;;;9.20;99.90;;;;;;5076263;28;20176;-50
2021/10/17 01:44:25;;;;;;;26.47;23.53;;;9.30;99.90;;;;;;5075928;28;20169;-50
2021/10/17 01:46:52;;;;;;;27.43;24.43;;;9.30;99.90;;;;;;5076080;28;20472;-50
2021/10/17 01:49:18;;;;;;;26.73;23.73;;;9.30;99.90;;;;;;5075789;28;20464;-51
2021/10/17 01:51:44;;;;;;;29.67;24.10;;;9.30;99.90;;;;;;5075723;28;20881;-59
2021/10/17 01:54:09;;;;;;;31.63;26.13;;;9.30;99.90;;;;;;5075337;28;20219;-59
2021/10/17 01:56:37;;;;;;;27.00;22.60;;;9.40;99.90;;;;;;5075810;28;20195;-59
2021/10/17 01:59:03;;;;;;;27.20;24.30;;;9.30;99.90;;;;;;5075849;28;20714;-49
2021/10/17 02:01:28;;;;;;;34.07;30.33;;;9.40;99.90;;;;;;5075518;28;20417;-51
2021/10/17 02:03:54;;;;;;;27.07;24.07;;;9.40;99.90;;;;;;5075415;28;20406;-50
2021/10/17 02:06:20;;;;;;;25.83;22.13;;;9.40;99.90;;;;;;5075570;28;20162;-59
2021/10/17 02:08:46;;;;;;;26.00;23.07;;;9.50;99.90;;;;;;5071452;28;20408;-52
2021/10/17 02:11:12;;;;;;;27.37;24.40;;;9.50;99.90;;;;;;5037549;28;20956;-49
2021/10/17 02:13:38;;;;;;;28.07;24.00;;;9.50;99.90;;;;;;5055406;28;20200;-49
2021/10/17 02:16:04;;;;;;;28.67;23.33;;;9.50;99.90;;;;;;5055194;28;20175;-48
2021/10/17 02:18:30;;;;;;;27.07;23.20;;;9.40;99.90;;;;;;5055502;28;20403;-52
2021/10/17 02:20:55;;;;;;;24.97;21.97;;;9.50;99.90;;;;;;5055319;28;20913;-50
2021/10/17 02:23:21;;;;;;;29.00;25.20;;;9.50;99.90;;;;;;5037067;28;20172;-55
2021/10/17 02:25:47;;;;;;;25.67;22.47;;;9.50;99.90;;;;;;5054996;28;20172;-57
2021/10/17 02:28:12;;;;;;;24.60;22.00;;;9.50;99.90;;;;;;5055096;28;20166;-58
2021/10/17 02:30:38;;;;;;;24.43;21.83;;;9.40;99.90;;;;;;5054701;28;20191;-49
2021/10/17 02:33:03;;;;;;;23.90;20.50;;;9.40;99.90;;;;;;5055290;28;20160;-49
2021/10/17 02:35:29;;;;;;;27.07;22.87;;;9.50;99.90;;;;;;5055044;28;20192;-50
2021/10/17 02:37:54;;;;;;;29.87;26.67;;;9.50;99.90;;;;;;5054823;28;20172;-51
2021/10/17 02:40:20;;;;;;;27.40;22.30;;;9.50;99.90;;;;;;5054153;28;20196;-50
2021/10/17 02:42:46;;;;;;;26.67;23.90;;;9.50;99.90;;;;;;5054848;28;20534;-49
2021/10/17 02:45:12;;;;;;;25.80;23.03;;;9.50;99.90;;;;;;5054763;28;20177;-57
2021/10/17 02:47:38;;;;;;;23.77;20.50;;;9.50;99.90;;;;;;5054566;28;20234;-56
2021/10/17 02:50:05;;;;;;;22.97;20.67;;;9.60;99.90;;;;;;5054554;28;20848;-48
2021/10/17 02:52:30;;;;;;;24.77;22.13;;;9.60;99.90;;;;;;5054539;28;20300;-48
2021/10/17 02:54:56;;;;;;;28.10;25.10;;;9.70;99.90;;;;;;5053919;28;20448;-52
2021/10/17 02:57:21;;;;;;;27.57;22.80;;;9.60;99.90;;;;;;5055014;28;20233;-50
2021/10/17 02:59:47;;;;;;;24.60;22.00;;;9.70;99.90;;;;;;5054515;28;20206;-52
2021/10/17 03:02:14;;;;;;;27.00;22.73;;;9.70;99.90;;;;;;5056801;28;20634;-49
2021/10/17 03:04:39;;;;;;;24.97;22.37;;;9.80;99.90;;;;;;5055696;28;20415;-49
2021/10/17 03:07:05;;;;;;;26.00;23.20;;;9.80;99.90;;;;;;5054323;28;20412;-48
2021/10/17 03:09:30;;;;;;;25.90;23.07;;;9.80;99.90;;;;;;5053562;28;20202;-45
2021/10/17 03:11:56;;;;;;;23.40;20.90;;;9.80;99.90;;;;;;5054484;28;20194;-48
2021/10/17 03:14:22;;;;;;;25.20;22.70;;;9.80;99.90;;;;;;5054442;28;20196;-45
2021/10/17 03:16:47;;;;;;;26.20;22.97;;;9.80;99.90;;;;;;5054140;28;20171;-48
2021/10/17 03:19:14;;;;;;;22.70;20.40;;;9.90;99.90;;;;;;5053998;28;20164;-49
2021/10/17 03:21:40;;;;;;;23.30;20.87;;;9.90;99.90;;;;;;5054232;28;20632;-47
2021/10/17 03:24:05;;;;;;;22.50;20.17;;;9.90;99.90;;;;;;5053599;28;20774;-50
2021/10/17 03:26:31;;;;;;;22.47;20.20;;;9.90;99.90;;;;;;5054298;28;20412;-48
2021/10/17 03:28:57;;;;;;;20.70;18.60;;;9.90;99.90;;;;;;5054489;28;20174;-48
2021/10/17 03:31:23;;;;;;;22.47;20.17;;;9.90;99.90;;;;;;5053786;28;20979;-47
2021/10/17 03:33:48;;;;;;;24.13;21.60;;;9.90;99.90;;;;;;5054026;28;20193;-47
2021/10/17 03:36:14;;;;;;;23.50;21.10;;;9.90;99.90;;;;;;5053868;28;20177;-47
2021/10/17 03:38:40;;;;;;;22.00;19.80;;;9.90;99.90;;;;;;5053604;28;20215;-50
2021/10/17 03:41:06;;;;;;;19.90;17.67;;;9.90;99.90;;;;;;5053291;28;20495;-50
2021/10/17 03:43:32;;;;;;;20.13;18.20;;;9.80;99.90;;;;;;5054127;28;20631;-47
2021/10/17 03:45:57;;;;;;;21.30;19.00;;;9.80;99.90;;;;;;5053751;28;20203;-45
2021/10/17 03:48:23;;;;;;;19.60;17.70;;;9.70;99.90;;;;;;5054137;28;20167;-47
2021/10/17 03:50:49;;;;;;;25.63;21.03;;;9.70;99.90;;;;;;5053726;28;20542;-46
2021/10/17 03:53:14;;;;;;;22.20;19.80;;;9.70;99.90;;;;;;5053941;28;20631;-47
2021/10/17 03:55:41;;;;;;;22.27;20.00;;;9.70;99.90;;;;;;5053372;28;20587;-49
2021/10/17 03:58:07;;;;;;;24.97;20.97;;;9.60;99.90;;;;;;5053851;28;20440;-48
2021/10/17 04:00:33;;;;;;;24.20;21.60;;;9.60;99.90;;;;;;5053690;28;20503;-47
2021/10/17 04:02:59;;;;;;;23.40;20.73;;;9.60;99.90;;;;;;5053673;28;20410;-48
2021/10/17 04:05:25;;;;;;;23.23;20.73;;;9.50;99.90;;;;;;5055112;28;20495;-48
2021/10/17 04:07:50;;;;;;;21.83;19.53;;;9.50;99.90;;;;;;5060593;28;20169;-47
2021/10/17 04:10:17;;;;;;;23.07;20.73;;;9.50;99.90;;;;;;5061164;28;20204;-50
2021/10/17 04:12:42;;;;;;;22.10;19.90;;;9.50;99.90;;;;;;5060407;28;20261;-48
2021/10/17 04:15:08;;;;;;;22.30;20.07;;;9.50;99.90;;;;;;5055664;28;20536;-47
2021/10/17 04:17:34;;;;;;;20.43;18.33;;;9.40;99.90;;;;;;5055394;28;20247;-47
2021/10/17 04:20:00;;;;;;;23.10;20.17;;;9.50;99.90;;;;;;5058007;28;20434;-47
2021/10/17 04:22:26;;;;;;;21.47;19.37;;;9.40;99.90;;;;;;5053699;28;20169;-46
2021/10/17 04:24:52;;;;;;;22.43;19.20;;;9.30;99.90;;;;;;5053512;28;20177;-46
2021/10/17 04:27:17;;;;;;;22.77;20.17;;;9.30;99.90;;;;;;5053758;28;20420;-46
2021/10/17 04:29:43;;;;;;;19.00;17.00;;;9.30;99.90;;;;;;5054007;28;20187;-49
2021/10/17 04:32:09;;;;;;;21.60;19.50;;;9.30;99.90;;;;;;5063499;28;20555;-48
2021/10/17 04:34:35;;;;;;;21.13;19.00;;;9.40;99.90;;;;;;5073346;28;20446;-47
2021/10/17 04:37:03;;;;;;;20.77;18.53;;;9.40;99.90;;;;;;5073465;28;20407;-48
2021/10/17 04:39:28;;;;;;;21.17;18.70;;;9.30;99.90;;;;;;5063733;28;20799;-48
2021/10/17 04:41:54;;;;;;;21.30;19.13;;;9.40;99.90;;;;;;5054134;28;20402;-47
2021/10/17 04:44:20;;;;;;;21.37;19.07;;;9.40;99.90;;;;;;5055229;28;20643;-47
2021/10/17 04:46:46;;;;;;;23.53;21.03;;;9.50;99.90;;;;;;5058596;28;20182;-48
2021/10/17 04:49:12;;;;;;;21.73;19.43;;;9.50;99.90;;;;;;5058932;28;20179;-48
2021/10/17 04:51:38;;;;;;;23.20;20.87;;;9.50;99.90;;;;;;5059747;28;20494;-48
2021/10/17 04:54:03;;;;;;;21.97;19.77;;;9.60;99.90;;;;;;5063080;28;20562;-47
2021/10/17 04:56:29;;;;;;;20.13;18.13;;;9.50;99.90;;;;;;5063678;28;20174;-50
2021/10/17 04:58:54;;;;;;;22.17;19.93;;;9.60;99.90;;;;;;5063252;28;20169;-51
2021/10/17 05:01:20;;;;;;;19.50;17.30;;;9.70;99.90;;;;;;5063190;28;20194;-47
2021/10/17 05:03:46;;;;;;;20.40;18.30;;;9.70;99.90;;;;;;5062609;28;20173;-51
2021/10/17 05:06:12;;;;;;;19.53;17.50;;;9.70;99.90;;;;;;5057083;28;20170;-46
2021/10/17 05:08:38;;;;;;;19.73;17.63;;;9.70;99.90;;;;;;5056844;28;20851;-47
2021/10/17 05:11:04;;;;;;;20.40;18.30;;;9.70;99.90;;;;;;5056853;28;20187;-49
2021/10/17 05:13:30;;;;;;;20.03;18.00;;;9.60;99.90;;;;;;5058603;28;20461;-47
2021/10/17 05:15:56;;;;;;;20.50;18.40;;;9.60;99.90;;;;;;5056580;28;20178;-48
2021/10/17 05:18:22;;;;;;;20.10;17.90;;;9.70;99.90;;;;;;5056502;28;20520;-45
2021/10/17 05:20:48;;;;;;;19.23;17.30;;;9.70;99.90;;;;;;5056347;28;20435;-46
2021/10/17 05:23:15;;;;;;;20.03;17.87;;;9.60;99.90;;;;;;5056799;28;20407;-47
2021/10/17 05:25:42;;;;;;;22.33;19.90;;;9.60;99.90;;;;;;5056041;28;20177;-49
2021/10/17 05:28:08;;;;;;;20.83;18.63;;;9.60;99.90;;;;;;5056415;28;20491;-49
2021/10/17 05:30:34;;;;;;;24.50;22.00;;;9.60;99.90;;;;;;5056256;28;20423;-48
2021/10/17 05:33:00;;;;;;;20.30;18.20;;;9.60;99.90;;;;;;5056696;28;20428;-48
2021/10/17 05:35:26;;;;;;;22.10;19.90;;;9.60;99.90;;;;;;5056123;28;20455;-51
2021/10/17 05:37:52;;;;;;;20.10;18.20;;;9.60;99.90;;;;;;5056395;28;20170;-53
2021/10/17 05:40:17;;;;;;;19.93;17.57;;;9.70;99.90;;;;;;5055501;28;20437;-50
2021/10/17 05:42:43;;;;;;;21.60;19.47;;;9.70;99.90;;;;;;5056099;28;20166;-49
2021/10/17 05:45:09;;;;;;;24.43;21.80;;;9.60;99.90;;;;;;5056044;28;20182;-51
2021/10/17 05:47:35;;;;;;;21.87;19.67;;;9.60;99.90;;;;;;5056127;28;20194;-52
2021/10/17 05:50:01;;;;;;;20.20;18.10;;;9.60;99.90;;;;;;5055778;28;20796;-52
2021/10/17 05:52:26;;;;;;;19.63;17.70;;;9.50;99.90;;;;;;5055939;28;20188;-51
2021/10/17 05:54:52;;;;;;;21.30;19.03;;;9.50;99.90;;;;;;5055462;28;20224;-49
2021/10/17 05:57:18;;;;;;;22.57;20.27;;;9.40;99.90;;;;;;5055729;28;20173;-50
2021/10/17 05:59:43;;;;;;;19.77;17.40;;;9.40;99.90;;;;;;5055617;28;20233;-48
2021/10/17 06:02:09;;;;;;;23.33;21.10;;;9.40;99.90;;;;;;5055941;28;20236;-52
2021/10/17 06:04:35;;;;;;;22.97;20.13;;;9.40;99.90;;;;;;5055020;28;20640;-52
2021/10/17 06:07:00;;;;;;;25.67;23.00;;;9.40;99.90;;;;;;5055578;28;20445;-49
2021/10/17 06:09:26;;;;;;;19.30;17.40;;;9.50;99.90;;;;;;5054996;28;20708;-47
2021/10/17 06:11:53;;;;;;;32.53;24.43;;;9.50;99.90;;;;;;5055525;28;20168;-57
2021/10/17 06:14:19;;;;;;;28.60;24.03;;;9.50;99.90;;;;;;5056032;28;20196;-56
2021/10/17 06:16:44;;;;;;;91.23;55.70;;;9.50;99.90;;;;;;5055385;28;20409;-57
2021/10/17 06:19:10;;;;;;;73.17;54.77;;;9.40;99.90;;;;;;5055635;28;20539;-50
2021/10/17 06:21:36;;;;;;;23.10;20.70;;;9.30;99.90;;;;;;5055928;28;20177;-48
2021/10/17 06:24:01;;;;;;;22.50;20.30;;;9.30;99.90;;;;;;5056687;28;20172;-54
2021/10/17 06:26:27;;;;;;;18.43;16.73;;;9.20;99.90;;;;;;5056618;28;20171;-53
2021/10/17 06:28:52;;;;;;;17.87;16.17;;;9.20;99.90;;;;;;5055749;28;20169;-50
2021/10/17 06:31:18;;;;;;;17.20;15.50;;;9.40;99.90;;;;;;5055389;28;20557;-54
2021/10/17 06:33:43;;;;;;;18.83;17.03;;;9.40;99.90;;;;;;5055173;28;20229;-52
2021/10/17 06:36:09;;;;;;;19.47;17.20;;;9.30;99.90;;;;;;5055020;28;20169;-56
2021/10/17 06:38:35;;;;;;;19.47;17.37;;;9.30;99.90;;;;;;5055272;28;20181;-59
2021/10/17 06:41:01;;;;;;;22.03;18.40;;;9.30;99.90;;;;;;5054406;28;20209;-56
2021/10/17 06:43:26;;;;;;;16.60;15.00;;;9.40;99.90;;;;;;5054772;28;20435;-58
2021/10/17 06:45:52;;;;;;;17.50;15.97;;;9.50;99.90;;;;;;5054498;28;20539;-57
2021/10/17 06:48:17;;;;;;;16.80;15.20;;;9.50;99.90;;;;;;5036724;28;20184;-58
2021/10/17 06:50:43;;;;;;;16.67;14.97;;;9.70;99.90;;;;;;5054543;28;20577;-54
2021/10/17 06:53:09;;;;;;;17.60;14.83;;;9.70;99.90;;;;;;5054601;28;20227;-56
2021/10/17 06:55:34;;;;;;;16.63;14.57;;;9.70;99.90;;;;;;5054027;28;20679;-55
2021/10/17 06:58:00;;;;;;;22.53;20.53;;;9.80;99.90;;;;;;5054725;28;20163;-55
2021/10/17 07:00:25;;;;;;;18.27;16.47;;;9.70;99.90;;;;;;5054592;28;20256;-57
2021/10/17 07:02:51;;;;;;;18.83;17.03;;;9.60;99.90;;;;;;5054833;28;20177;-51
2021/10/17 07:05:17;;;;;;;19.70;16.20;;;9.50;99.90;;;;;;5054595;28;20183;-55
2021/10/17 07:07:42;;;;;;;16.00;14.50;;;9.50;99.90;;;;;;5054537;28;20216;-52
2021/10/17 07:10:08;;;;;;;16.83;15.23;;;9.60;99.90;;;;;;5054152;28;20210;-49
2021/10/17 07:12:34;;;;;;;17.00;15.30;;;9.80;99.90;;;;;;5054503;28;20178;-59
2021/10/17 07:15:00;;;;;;;22.60;20.50;;;9.80;99.90;;;;;;5054390;28;20197;-54
2021/10/17 07:17:25;;;;;;;18.73;16.83;;;9.80;99.90;;;;;;5036235;28;20192;-59
2021/10/17 07:19:51;;;;;;;19.07;17.37;;;9.70;99.90;;;;;;5054469;28;20905;-54
2021/10/17 07:22:16;;;;;;;20.33;18.30;;;9.80;99.90;;;;;;5054161;28;20631;-53
2021/10/17 07:24:42;;;;;;;18.90;17.10;;;9.90;99.90;;;;;;5061525;28;20181;-58
2021/10/17 07:27:07;;;;;;;15.30;13.70;;;9.90;99.90;;;;;;5054028;28;20267;-58
2021/10/17 07:29:33;;;;;;;18.20;16.07;;;9.60;99.90;;;;;;5053918;28;20191;-55
2021/10/17 07:31:59;;;;;;;17.87;16.00;;;9.80;99.90;;;;;;5054177;28;20188;-56
2021/10/17 07:34:24;;;;;;;19.20;17.23;;;10.00;99.90;;;;;;5054291;28;20192;-56
2021/10/17 07:36:50;;;;;;;19.37;17.47;;;10.00;99.90;;;;;;5053787;28;20164;-57
2021/10/17 07:39:16;;;;;;;19.00;15.67;;;10.10;99.90;;;;;;5053652;28;20163;-51
2021/10/17 07:41:47;;;;;;;19.40;17.53;;;10.20;99.90;;;;;;5053580;28;20215;-50
2021/10/17 07:44:13;;;;;;;19.50;17.13;;;9.90;99.90;;;;;;5053678;28;20158;-57
2021/10/17 07:46:39;;;;;;;20.40;18.30;;;9.90;99.90;;;;;;5054013;28;20830;-57
2021/10/17 07:49:05;;;;;;;23.20;20.77;;;9.70;99.90;;;;;;5053607;28;20477;-50
2021/10/17 07:51:31;;;;;;;21.70;19.40;;;9.60;99.90;;;;;;5053610;28;20166;-50
2021/10/17 07:53:56;;;;;;;20.77;18.40;;;9.70;99.90;;;;;;5053546;28;20200;-57
2021/10/17 07:56:22;;;;;;;21.20;18.30;;;9.80;99.90;;;;;;5053153;28;20397;-57
2021/10/17 07:58:50;;;;;;;22.03;19.33;;;9.90;99.90;;;;;;5054481;28;20161;-49
2021/10/17 08:01:16;;;;;;;23.13;20.83;;;10.10;99.90;;;;;;5053323;28;20196;-51
2021/10/17 08:03:41;;;;;;;22.17;19.80;;;10.00;99.90;;;;;;5054069;28;20400;-56
2021/10/17 08:06:07;;;;;;;22.37;20.07;;;10.10;99.90;;;;;;5053410;28;20434;-57
2021/10/17 08:08:32;;;;;;;21.93;19.13;;;10.20;99.90;;;;;;5053213;28;20162;-57
2021/10/17 08:10:58;;;;;;;22.50;18.53;;;10.30;99.90;;;;;;5053882;28;20589;-52
2021/10/17 08:13:25;;;;;;;22.60;20.30;;;10.20;99.90;;;;;;5053215;28;20167;-51
2021/10/17 08:15:51;;;;;;;23.80;21.30;;;10.30;99.90;;;;;;5053138;28;20735;-49
2021/10/17 08:18:16;;;;;;;22.67;19.27;;;10.10;99.90;;;;;;5053454;28;20491;-49
2021/10/17 08:20:42;;;;;;;22.33;19.93;;;10.20;99.90;;;;;;5053029;28;20599;-49
2021/10/17 08:23:07;;;;;;;23.13;20.73;;;10.20;99.90;;;;;;5053435;28;20164;-52
2021/10/17 08:25:33;;;;;;;22.27;19.97;;;10.20;99.90;;;;;;5052982;28;20611;-48
2021/10/17 08:28:00;;;;;;;20.30;18.33;;;10.50;99.90;;;;;;5056087;28;20213;-48
2021/10/17 08:30:26;;;;;;;20.57;18.57;;;10.70;99.90;;;;;;5057095;28;20194;-47
2021/10/17 08:32:51;;;;;;;23.10;20.80;;;10.70;99.90;;;;;;5057360;28;20614;-48
2021/10/17 08:35:17;;;;;;;21.63;19.47;;;10.70;99.90;;;;;;5057599;28;20553;-48
2021/10/17 08:37:43;;;;;;;21.50;19.30;;;10.60;99.90;;;;;;5057127;28;20245;-48
2021/10/17 08:40:09;;;;;;;21.50;19.40;;;10.30;99.90;;;;;;5056776;28;20191;-49
2021/10/17 08:42:36;;;;;;;23.27;20.87;;;10.20;99.90;;;;;;5058478;28;20249;-49
2021/10/17 08:45:06;;;;;;;20.33;18.40;;;10.40;99.90;;;;;;5058496;28;20401;-49
2021/10/17 08:47:33;;;;;;;21.07;18.80;;;10.70;99.90;;;;;;5057611;28;20401;-48
2021/10/17 08:49:59;;;;;;;21.13;18.93;;;10.70;99.90;;;;;;5057301;28;20432;-49
2021/10/17 08:52:25;;;;;;;20.13;18.07;;;10.60;99.90;;;;;;5056795;28;20409;-49
2021/10/17 08:54:51;;;;;;;20.80;18.60;;;10.80;99.90;;;;;;5056216;28;20502;-47
2021/10/17 08:57:17;;;;;;;20.10;18.00;;;11.00;99.90;;;;;;5057254;28;20537;-50
2021/10/17 08:59:47;;;;;;;21.63;19.30;;;11.30;99.90;;;;;;5057007;28;20211;-51
2021/10/17 09:02:21;;;;;;;21.10;18.73;;;11.50;99.90;;;;;;5056924;28;20395;-59
2021/10/17 09:05:03;;;;;;;21.87;19.60;;;11.30;99.90;;;;;;5056727;28;20918;-58
2021/10/17 09:07:29;;;;;;;20.60;18.50;;;11.30;99.90;;;;;;5083220;22;20495;-52
2021/10/17 09:10:07;;;;;;;21.33;19.10;;;11.30;99.90;;;;;;5083939;28;20409;-54
2021/10/17 09:12:34;;;;;;;20.33;18.30;;;11.30;99.90;;;;;;5076357;28;20621;-55
2021/10/17 09:15:18;;;;;;;20.20;18.23;;;11.30;99.90;;;;;;5075022;28;20805;-57
2021/10/17 09:18:05;;;;;;;20.07;18.07;;;11.40;99.90;;;;;;5059627;28;20420;-53
2021/10/17 09:20:32;;;;;;;21.90;19.70;;;11.50;99.90;;;;;;5055957;28;20420;-53
2021/10/17 09:23:02;;;;;;;20.20;18.20;;;11.60;99.90;;;;;;5058058;28;20450;-52
2021/10/17 09:25:37;;;;;;;22.20;19.83;;;11.80;99.90;;;;;;5055593;28;20839;-51
2021/10/17 09:28:33;;;;;;;21.27;19.07;;;11.60;99.90;;;;;;5055995;28;20427;-55
2021/10/17 09:31:05;;;;;;;21.23;18.90;;;11.50;99.90;;;;;;5056367;28;20469;-49
2021/10/17 09:33:31;;;;;;;20.13;18.20;;;11.70;99.90;;;;;;5055945;28;20928;-55
2021/10/17 09:35:57;;;;;;;21.20;19.00;;;11.90;99.90;;;;;;5055568;28;20516;-53
2021/10/17 09:38:35;;;;;;;20.03;17.93;;;11.70;99.90;;;;;;5055048;28;20425;-57
2021/10/17 09:41:35;;;;;;;21.10;18.70;;;11.80;99.90;;;;;;5055612;28;20527;-55
2021/10/17 09:44:02;;;;;;;22.33;20.03;;;11.90;99.90;;;;;;5022673;28;20448;-57
2021/10/17 09:46:29;;;;;;;20.70;18.63;;;11.80;99.90;;;;;;5055684;28;20431;-52
2021/10/17 09:48:55;;;;;;;21.70;19.40;;;11.70;99.90;;;;;;5055450;28;20489;-56
2021/10/17 09:51:26;;;;;;;20.47;18.27;;;11.90;99.90;;;;;;5055396;28;20442;-55
2021/10/17 09:53:57;;;;;;;21.80;19.50;;;11.90;99.90;;;;;;5056413;28;20535;-56
2021/10/17 09:56:40;;;;;;;20.07;18.03;;;11.90;99.90;;;;;;5055154;28;20425;-54
2021/10/17 09:59:13;;;;;;;20.20;18.10;;;11.90;99.90;;;;;;5055453;28;20482;-53
2021/10/17 10:01:40;;;;;;;20.63;18.43;;;11.80;99.90;;;;;;5055423;28;20409;-52
2021/10/17 10:04:08;;;;;;;20.43;18.33;;;11.90;99.90;;;;;;5055149;28;20820;-55
2021/10/17 10:06:34;;;;;;;22.93;20.53;;;12.00;99.90;;;;;;5055125;28;20493;-53
2021/10/17 10:09:04;;;;;;;19.90;17.90;;;12.20;99.90;;;;;;5055080;28;20415;-54
2021/10/17 10:11:31;;;;;;;22.60;20.30;;;12.20;99.90;;;;;;5055070;28;20693;-53
2021/10/17 10:13:59;;;;;;;21.13;18.43;;;12.50;99.90;;;;;;5055235;28;20793;-55
2021/10/17 10:16:27;;;;;;;21.90;19.57;;;12.50;99.90;;;;;;5055026;28;20527;-53
2021/10/17 10:19:04;;;;;;;18.37;16.50;;;12.30;99.90;;;;;;5055458;28;20405;-54
2021/10/17 10:21:31;;;;;;;21.53;18.07;;;12.40;99.90;;;;;;5054645;28;20389;-56
2021/10/17 10:24:01;;;;;;;21.63;19.37;;;12.60;99.90;;;;;;5054799;28;20759;-55
2021/10/17 10:26:28;;;;;;;21.80;19.50;;;12.60;99.90;;;;;;5054480;28;20420;-54
2021/10/17 10:28:55;;;;;;;20.10;17.90;;;12.70;99.90;;;;;;5054951;28;20489;-51
2021/10/17 10:31:40;;;;;;;21.77;18.90;;;12.80;99.90;;;;;;5054674;28;20902;-53
2021/10/17 10:34:06;;;;;;;20.10;17.80;;;12.80;99.90;;;;;;5054594;28;20445;-54
2021/10/17 10:36:43;;;;;;;21.03;18.87;;;13.20;99.90;;;;;;5054449;28;20431;-51
2021/10/17 10:39:32;;;;;;;21.70;19.40;;;13.30;99.90;;;;;;5054380;28;20402;-51
2021/10/17 10:42:02;;;;;;;22.03;19.73;;;13.50;99.90;;;;;;5054354;28;20872;-56
2021/10/17 10:44:36;;;;;;;23.80;20.80;;;13.40;99.90;;;;;;5054642;28;20543;-54
2021/10/17 10:47:21;;;;;;;20.87;18.67;;;13.20;99.90;;;;;;5054613;28;20803;-54
2021/10/17 10:49:48;;;;;;;22.87;20.47;;;13.30;99.90;;;;;;5054330;28;20456;-50
2021/10/17 10:52:23;;;;;;;24.33;21.83;;;13.20;99.90;;;;;;5054015;28;20407;-53
2021/10/17 10:54:50;;;;;;;21.93;19.57;;;13.60;99.90;;;;;;5053971;28;20446;-53
2021/10/17 10:57:22;;;;;;;24.17;21.67;;;13.60;99.90;;;;;;5054316;28;20484;-56
2021/10/17 11:00:08;;;;;;;23.43;21.07;;;13.80;99.90;;;;;;5054432;28;20386;-52
2021/10/17 11:02:35;;;;;;;25.00;22.30;;;14.00;99.90;;;;;;5054429;28;20514;-55
2021/10/17 11:05:08;;;;;;;26.83;23.93;;;13.80;99.90;;;;;;5054144;28;20409;-53
2021/10/17 11:07:45;;;;;;;24.87;22.27;;;13.40;99.90;;;;;;5053588;28;20461;-55
2021/10/17 11:10:23;;;;;;;24.13;21.73;;;13.20;99.90;;;;;;5054078;28;20408;-54
2021/10/17 11:12:48;;;;;;;27.63;22.90;;;13.50;99.90;;;;;;5054675;28;20407;-55
2021/10/17 11:15:18;;;;;;;22.87;20.67;;;13.20;99.90;;;;;;5054026;28;20451;-53
2021/10/17 11:17:54;;;;;;;23.43;21.03;;;13.00;99.90;;;;;;5053919;28;20536;-55
2021/10/17 11:20:22;;;;;;;24.37;21.77;;;12.80;99.90;;;;;;5054258;28;20868;-54
2021/10/17 11:22:49;;;;;;;24.87;22.27;;;12.60;99.90;;;;;;5054022;28;20418;-54
2021/10/17 11:25:16;;;;;;;25.43;22.73;;;12.80;99.90;;;;;;5053250;28;20917;-54
2021/10/17 11:27:43;;;;;;;24.73;22.00;;;12.40;99.90;;;;;;5053994;28;20429;-54
2021/10/17 11:30:33;;;;;;;23.57;20.87;;;12.40;99.90;;;;;;5053528;28;20467;-57
2021/10/17 11:33:02;;;;;;;22.77;20.47;;;12.70;99.90;;;;;;5054284;28;20411;-55
2021/10/17 11:35:34;;;;;;;23.93;21.33;;;12.80;99.90;;;;;;5053672;28;20441;-56
2021/10/17 11:38:02;;;;;;;25.23;22.50;;;12.90;99.90;;;;;;5053359;28;20533;-56
2021/10/17 11:40:29;;;;;;;22.90;20.57;;;12.60;99.90;;;;;;5053451;28;20414;-52
2021/10/17 11:42:58;;;;;;;22.10;19.70;;;12.60;99.90;;;;;;5053469;28;20453;-54
2021/10/17 11:45:30;;;;;;;23.97;21.40;;;12.70;99.90;;;;;;5053519;28;20410;-53
2021/10/17 11:47:58;;;;;;;22.00;19.70;;;13.10;99.90;;;;;;5053036;28;20426;-55
2021/10/17 11:50:29;;;;;;;20.93;18.30;;;13.00;99.90;;;;;;5053214;28;20438;-55
2021/10/17 11:52:56;;;;;;;22.73;20.43;;;13.10;99.90;;;;;;5053187;28;20428;-54
2021/10/17 11:55:32;;;;;;;20.53;18.43;;;13.00;99.90;;;;;;5052711;28;20443;-54
2021/10/17 11:57:58;;;;;;;20.77;18.63;;;13.00;99.90;;;;;;5053490;28;20918;-53
2021/10/17 12:00:26;;;;;;;23.80;21.43;;;13.20;99.90;;;;;;5056207;28;20468;-54
2021/10/17 12:02:52;;;;;;;22.00;19.80;;;13.10;99.90;;;;;;5071586;28;20782;-49
2021/10/17 12:05:20;;;;;;;21.67;19.43;;;12.80;99.90;;;;;;5072537;28;20412;-49
2021/10/17 12:07:45;;;;;;;22.17;18.97;;;12.80;99.90;;;;;;5052340;28;20587;-56
2021/10/17 12:10:11;;;;;;;19.63;17.63;;;13.00;99.90;;;;;;5053114;28;20409;-52
2021/10/17 12:12:42;;;;;;;19.67;17.57;;;12.90;99.90;;;;;;5053042;28;20228;-51
2021/10/17 12:15:12;;;;;;;24.20;21.33;;;13.10;99.90;;;;;;5053232;28;20480;-56
2021/10/17 12:17:38;;;;;;;21.83;19.63;;;13.10;99.90;;;;;;5052805;28;20442;-53
2021/10/17 12:20:10;;;;;;;24.70;22.20;;;13.00;99.90;;;;;;5052900;28;20886;-54
2021/10/17 12:22:47;;;;;;;20.83;18.67;;;12.70;99.90;;;;;;5052714;28;20163;-53
2021/10/17 12:25:15;;;;;;;20.90;18.73;;;12.90;99.90;;;;;;5053047;28;20889;-55
2021/10/17 12:27:46;;;;;;;20.40;18.30;;;13.20;99.90;;;;;;5053002;28;20428;-52
2021/10/17 12:30:19;;;;;;;23.23;20.83;;;13.30;99.90;;;;;;5053202;28;20538;-54
2021/10/17 12:32:45;;;;;;;21.50;19.30;;;13.20;99.90;;;;;;5052997;28;20437;-53
2021/10/17 12:35:23;;;;;;;22.27;19.90;;;13.30;99.90;;;;;;5053008;28;20500;-55